createdAt,value
2022-12-16T00:13:15.254Z,0.70
2022-12-16T08:46:09.925Z,-1.20
2022-12-16T09:26:55.702Z,-0.90
2022-12-16T09:32:55.076Z,-0.70
2022-12-16T09:52:18.372Z,0.20
2022-12-16T10:33:56.585Z,1.90
2022-12-16T10:39:24.514Z,2.20
2022-12-16T10:45:34.052Z,2.30
2022-12-16T10:51:01.077Z,2.60
2022-12-16T10:56:58.682Z,3.00
2022-12-16T11:02:41.141Z,3.60
2022-12-16T11:08:02.940Z,4.20
2022-12-16T11:13:59.597Z,4.90
2022-12-16T11:19:24.295Z,5.80
2022-12-16T11:24:50.580Z,6.30
2022-12-16T11:30:18.391Z,6.20
2022-12-16T11:35:46.601Z,5.60
2022-12-16T11:41:11.500Z,5.20
2022-12-16T11:46:51.639Z,5.10
2022-12-16T11:52:38.663Z,5.10
2022-12-16T11:58:47.644Z,5.10
2022-12-16T12:04:37.557Z,5.20
2022-12-16T12:10:27.063Z,5.30
2022-12-16T12:16:02.599Z,5.40
2022-12-16T12:21:49.751Z,5.50
2022-12-16T12:27:29.574Z,5.70
2022-12-16T12:33:18.290Z,6.10
2022-12-16T12:38:57.808Z,6.10
2022-12-16T12:44:48.733Z,6.20
2022-12-16T12:50:25.841Z,6.00
2022-12-16T12:56:09.047Z,5.80
2022-12-16T13:01:32.128Z,5.70
2022-12-16T13:06:55.653Z,5.60
2022-12-16T13:12:25.304Z,5.50
2022-12-16T13:17:46.379Z,5.50
2022-12-16T13:23:12.019Z,5.60
2022-12-16T13:28:52.886Z,5.80
2022-12-16T13:34:17.818Z,6.10
2022-12-16T13:39:43.116Z,6.40
2022-12-16T13:45:12.996Z,6.60
2022-12-16T13:50:58.499Z,6.60
2022-12-16T13:56:20.885Z,6.40
2022-12-16T14:02:05.283Z,6.00
2022-12-16T14:07:26.593Z,5.70
2022-12-16T14:13:20.204Z,5.40
2022-12-16T14:19:04.603Z,5.20
2022-12-16T14:24:35.832Z,5.10
2022-12-16T14:29:56.726Z,4.90
2022-12-16T14:35:21.191Z,4.80
2022-12-16T14:40:42.890Z,4.70
2022-12-16T14:46:08.404Z,4.50
2022-12-16T14:51:49.831Z,4.40
2022-12-16T14:57:10.387Z,4.10
2022-12-16T15:02:57.467Z,4.00
2022-12-16T15:08:19.095Z,3.70
2022-12-16T15:13:40.262Z,3.60
2022-12-16T15:19:06.975Z,3.50
2022-12-16T15:25:02.590Z,3.40
2022-12-16T15:30:52.847Z,3.50
2022-12-16T15:36:20.010Z,3.40
2022-12-16T15:41:51.547Z,3.40
2022-12-16T15:47:12.230Z,3.20
2022-12-16T15:53:04.520Z,3.20
2022-12-16T15:58:43.826Z,3.10
2022-12-16T16:04:14.149Z,3.00
2022-12-16T16:09:44.826Z,2.90
2022-12-16T16:15:06.704Z,2.80
2022-12-16T16:20:33.665Z,2.60
2022-12-16T16:25:58.006Z,2.50
2022-12-16T16:31:23.675Z,2.30
2022-12-16T16:36:44.700Z,2.20
2022-12-16T16:42:06.934Z,2.10
2022-12-16T16:47:35.474Z,2.00
2022-12-16T16:53:00.867Z,2.10
2022-12-16T16:58:30.179Z,2.10
2022-12-16T17:03:51.471Z,2.10
2022-12-16T17:09:12.884Z,2.10
2022-12-16T17:14:38.790Z,2.00
2022-12-16T17:19:59.830Z,2.00
2022-12-16T17:25:20.701Z,2.00
2022-12-16T17:30:47.100Z,2.00
2022-12-16T17:36:10.987Z,2.00
2022-12-16T17:41:31.704Z,2.00
2022-12-16T17:46:53.285Z,2.00
2022-12-16T17:52:16.982Z,2.00
2022-12-16T17:57:37.473Z,2.10
2022-12-16T18:02:58.841Z,2.00
2022-12-16T18:08:20.631Z,1.90
2022-12-16T18:13:42.388Z,1.70
2022-12-16T18:19:09.463Z,1.60
2022-12-16T18:24:30.624Z,1.50
2022-12-16T18:29:52.548Z,1.50
2022-12-16T18:35:21.068Z,1.50
2022-12-16T18:40:42.196Z,1.50
2022-12-16T18:46:12.393Z,1.40
2022-12-16T18:51:34.233Z,1.20
2022-12-16T19:02:45.186Z,1.00
2022-12-16T19:08:08.920Z,0.80
2022-12-16T19:13:34.377Z,0.70
2022-12-16T19:18:56.738Z,0.50
2022-12-16T19:24:17.339Z,0.40
2022-12-16T19:30:18.612Z,0.40
2022-12-16T19:36:10.609Z,0.30
2022-12-16T19:47:33.253Z,0.20
2022-12-16T19:53:21.666Z,0.20
2022-12-16T20:05:07.893Z,0.10
2022-12-16T20:10:34.161Z,0.00
2022-12-16T20:16:02.239Z,-0.20
2022-12-16T20:21:26.699Z,-0.20
2022-12-16T20:26:50.431Z,-0.20
2022-12-16T20:32:35.445Z,-0.20
2022-12-16T20:37:58.881Z,-0.40
2022-12-16T20:43:34.986Z,-0.50
2022-12-16T20:48:57.532Z,-0.60
2022-12-16T20:54:40.672Z,-0.60
2022-12-16T21:00:15.886Z,-0.60
2022-12-16T21:05:45.677Z,-0.70
2022-12-16T21:11:17.737Z,-0.70
2022-12-16T21:16:49.267Z,-0.70
2022-12-16T21:22:10.349Z,-0.70
2022-12-16T21:27:33.803Z,-0.90
2022-12-16T21:33:04.265Z,-0.90
2022-12-16T21:38:37.440Z,-0.90
2022-12-16T21:44:00.210Z,-0.90
2022-12-16T21:49:31.090Z,-1.00
2022-12-16T21:55:33.133Z,-1.00
2022-12-16T22:01:00.880Z,-1.10
2022-12-16T22:06:29.515Z,-1.10
2022-12-16T22:12:17.460Z,-1.10
2022-12-16T22:17:41.592Z,-1.10
2022-12-16T22:23:16.199Z,-1.00
2022-12-16T22:34:18.518Z,-1.00
2022-12-16T22:39:55.107Z,-1.10
2022-12-16T22:45:36.099Z,-1.10
2022-12-16T22:51:02.994Z,-1.10
2022-12-16T23:02:35.455Z,-1.20
2022-12-16T23:08:03.208Z,-1.20
2022-12-16T23:13:51.285Z,-1.20
2022-12-16T23:19:18.075Z,-1.20
2022-12-16T23:24:40.720Z,-1.20
2022-12-16T23:30:15.804Z,-1.20
2022-12-16T23:42:23.486Z,-1.20
2022-12-16T23:47:45.136Z,-1.30
2022-12-16T23:53:33.506Z,-1.20
2022-12-16T23:59:20.116Z,-1.20
